Time;durP1;ratioP1;P1;durP2;ratioP2;P2;SDS_P1;SDS_P2;PMS_P1;PMS_P2;Temp;Humidity;BMP_temperature;BMP_pressure;BME280_temperature;BME280_humidity;BME280_pressure;Samples;Min_cycle;Max_cycle;Signal;HPM_P1;HPM_P2
2023/12/05 00:01:45;;;;;;;2.10;2.00;;;;;;;;;;5057689;28;20207;-60
2023/12/05 00:04:12;;;;;;;2.57;2.30;;;;;;;;;;5058111;28;20206;-60
2023/12/05 00:06:41;;;;;;;3.30;2.00;;;;;;;;;;5062327;28;20195;-60
2023/12/05 00:09:08;;;;;;;2.60;2.40;;;;;;;;;;5059298;28;20217;-62
2023/12/05 00:11:35;;;;;;;2.80;2.60;;;;;;;;;;5063090;28;20210;-62
2023/12/05 00:14:02;;;;;;;2.83;2.63;;;;;;;;;;5056131;28;20238;-62
2023/12/05 00:16:29;;;;;;;3.00;2.80;;;;;;;;;;5057642;28;20221;-61
2023/12/05 00:18:56;;;;;;;4.43;2.37;;;;;;;;;;5057489;28;20211;-61
2023/12/05 00:21:24;;;;;;;2.93;2.70;;;;;;;;;;5056690;28;20212;-62
2023/12/05 00:23:53;;;;;;;3.60;3.30;;;;;;;;;;5055147;28;20210;-62
2023/12/05 00:26:20;;;;;;;3.03;2.77;;;;;;;;;;5057799;28;20196;-62
2023/12/05 00:28:47;;;;;;;3.03;2.83;;;;;;;;;;5058833;28;20211;-62
2023/12/05 00:31:14;;;;;;;3.10;2.80;;;;;;;;;;5058662;28;20203;-61
2023/12/05 00:33:41;;;;;;;4.23;3.20;;;;;;;;;;5058544;28;20207;-61
2023/12/05 00:36:09;;;;;;;3.33;3.03;;;;;;;;;;5058821;28;20423;-61
2023/12/05 00:38:36;;;;;;;3.57;3.27;;;;;;;;;;5057789;28;20211;-62
2023/12/05 00:41:05;;;;;;;3.97;3.43;;;;;;;;;;5056236;28;20211;-61
2023/12/05 00:43:32;;;;;;;3.63;3.33;;;;;;;;;;5061354;28;20214;-62
2023/12/05 00:45:59;;;;;;;3.47;3.17;;;;;;;;;;5058251;28;20205;-61
2023/12/05 00:48:26;;;;;;;3.77;3.40;;;;;;;;;;5056928;28;20203;-63
2023/12/05 00:50:53;;;;;;;3.27;2.97;;;;;;;;;;5057172;28;20205;-63
2023/12/05 00:53:20;;;;;;;3.40;3.07;;;;;;;;;;5055491;28;20215;-62
2023/12/05 00:55:47;;;;;;;3.10;2.80;;;;;;;;;;5057515;28;20211;-61
2023/12/05 00:58:16;;;;;;;3.00;2.70;;;;;;;;;;5055416;28;20209;-61
2023/12/05 01:00:43;;;;;;;2.87;2.60;;;;;;;;;;5059428;28;20309;-62
2023/12/05 01:03:10;;;;;;;4.63;2.70;;;;;;;;;;5057326;28;20198;-60
2023/12/05 01:05:37;;;;;;;3.50;3.17;;;;;;;;;;5057172;28;20207;-62
2023/12/05 01:08:04;;;;;;;3.30;3.00;;;;;;;;;;5058286;28;20195;-61
2023/12/05 01:10:31;;;;;;;3.07;2.77;;;;;;;;;;5059038;28;20211;-61
2023/12/05 01:12:59;;;;;;;3.10;2.80;;;;;;;;;;5056749;28;20329;-62
2023/12/05 01:15:27;;;;;;;3.17;2.80;;;;;;;;;;5057494;28;20207;-62
2023/12/05 01:17:54;;;;;;;3.60;2.50;;;;;;;;;;5061839;28;20202;-61
2023/12/05 01:20:21;;;;;;;2.53;2.33;;;;;;;;;;5057898;28;20199;-62
2023/12/05 01:22:48;;;;;;;2.50;2.30;;;;;;;;;;5058987;28;20205;-62
2023/12/05 01:25:16;;;;;;;2.50;2.30;;;;;;;;;;5058205;28;20198;-63
2023/12/05 01:27:43;;;;;;;3.07;2.30;;;;;;;;;;5057818;28;20202;-61
2023/12/05 01:30:10;;;;;;;2.53;2.33;;;;;;;;;;5058645;28;20218;-61
2023/12/05 01:32:38;;;;;;;2.60;2.40;;;;;;;;;;5059100;28;20202;-60
2023/12/05 01:35:06;;;;;;;3.50;2.20;;;;;;;;;;5058653;28;20207;-61
2023/12/05 01:37:33;;;;;;;4.27;2.07;;;;;;;;;;5058567;28;20218;-61
2023/12/05 01:40:00;;;;;;;2.13;1.93;;;;;;;;;;5057265;28;20201;-61
2023/12/05 01:42:27;;;;;;;2.10;1.90;;;;;;;;;;5058638;28;22375;-61
2023/12/05 01:44:55;;;;;;;2.43;2.10;;;;;;;;;;5058804;28;20212;-61
2023/12/05 01:47:23;;;;;;;3.67;2.10;;;;;;;;;;5057697;28;20195;-62
2023/12/05 01:49:51;;;;;;;2.17;2.00;;;;;;;;;;5058119;28;20221;-61
2023/12/05 01:52:18;;;;;;;2.00;1.87;;;;;;;;;;5055070;28;20215;-61
2023/12/05 01:54:45;;;;;;;2.30;1.97;;;;;;;;;;5058844;28;20441;-62
2023/12/05 01:57:13;;;;;;;2.27;1.97;;;;;;;;;;5061186;28;20215;-62
2023/12/05 01:59:40;;;;;;;2.17;1.83;;;;;;;;;;5058596;28;20207;-62
2023/12/05 02:02:07;;;;;;;2.77;1.80;;;;;;;;;;5058529;28;20215;-62
2023/12/05 02:04:35;;;;;;;2.00;1.50;;;;;;;;;;5058752;28;20268;-61
2023/12/05 02:07:05;;;;;;;2.43;1.67;;;;;;;;;;5054333;28;20203;-62
2023/12/05 02:09:32;;;;;;;2.87;1.53;;;;;;;;;;5054857;28;20210;-61
2023/12/05 02:11:59;;;;;;;3.20;1.50;;;;;;;;;;5056030;28;20209;-62
2023/12/05 02:14:26;;;;;;;1.87;1.50;;;;;;;;;;5055587;28;20234;-61
2023/12/05 02:16:57;;;;;;;2.47;1.40;;;;;;;;;;5055401;28;20237;-63
2023/12/05 02:19:40;;;;;;;2.13;1.37;;;;;;;;;;5060515;28;20217;-62
2023/12/05 02:22:13;;;;;;;1.30;1.20;;;;;;;;;;5058943;28;20202;-61
2023/12/05 02:24:40;;;;;;;2.23;1.30;;;;;;;;;;5056248;28;20210;-63
2023/12/05 02:27:11;;;;;;;1.70;1.30;;;;;;;;;;5056256;28;20203;-62
2023/12/05 02:29:47;;;;;;;1.80;1.20;;;;;;;;;;5056911;28;20211;-63
2023/12/05 02:32:14;;;;;;;1.00;1.00;;;;;;;;;;5056170;28;20210;-63
2023/12/05 02:34:41;;;;;;;1.37;1.07;;;;;;;;;;5057647;28;20207;-62
2023/12/05 02:37:12;;;;;;;0.70;0.70;;;;;;;;;;5056663;28;20226;-61
2023/12/05 02:39:42;;;;;;;1.23;1.00;;;;;;;;;;5057896;28;20198;-63
2023/12/05 02:42:11;;;;;;;0.57;0.50;;;;;;;;;;5056793;28;20218;-61
2023/12/05 02:44:41;;;;;;;1.07;0.70;;;;;;;;;;5056970;28;20207;-62
2023/12/05 02:47:13;;;;;;;1.63;0.67;;;;;;;;;;5056133;28;20199;-60
2023/12/05 02:49:40;;;;;;;0.70;0.70;;;;;;;;;;5054785;28;20211;-61
2023/12/05 02:52:07;;;;;;;1.03;0.50;;;;;;;;;;5054681;28;20217;-63
2023/12/05 02:54:35;;;;;;;0.97;0.60;;;;;;;;;;5055261;28;20210;-62
2023/12/05 02:57:02;;;;;;;0.70;0.70;;;;;;;;;;5056030;28;20207;-62
2023/12/05 02:59:29;;;;;;;1.83;0.70;;;;;;;;;;5055004;28;20207;-61
2023/12/05 03:01:56;;;;;;;1.53;0.73;;;;;;;;;;5055185;28;20206;-60
2023/12/05 03:04:24;;;;;;;0.77;0.70;;;;;;;;;;5056548;28;20203;-62
2023/12/05 03:06:51;;;;;;;0.57;0.50;;;;;;;;;;5054545;28;20210;-61
2023/12/05 03:09:18;;;;;;;0.67;0.60;;;;;;;;;;5056049;28;20222;-62
2023/12/05 03:11:46;;;;;;;1.00;0.40;;;;;;;;;;5055006;28;20206;-61
2023/12/05 03:14:13;;;;;;;0.83;0.67;;;;;;;;;;5054963;28;20257;-62
2023/12/05 03:16:40;;;;;;;0.80;0.40;;;;;;;;;;5055174;28;20214;-62
2023/12/05 03:19:07;;;;;;;0.50;0.50;;;;;;;;;;5056418;28;20209;-62
2023/12/05 03:21:35;;;;;;;0.57;0.50;;;;;;;;;;5056962;28;20202;-61
2023/12/05 03:24:02;;;;;;;2.30;0.50;;;;;;;;;;5055378;28;20199;-63
2023/12/05 03:26:30;;;;;;;1.67;0.57;;;;;;;;;;5055342;28;20202;-62
2023/12/05 03:28:57;;;;;;;0.40;0.40;;;;;;;;;;5059438;28;21439;-61
2023/12/05 03:31:24;;;;;;;0.50;0.50;;;;;;;;;;5056133;28;20213;-63
2023/12/05 03:33:51;;;;;;;0.40;0.40;;;;;;;;;;5058742;28;20208;-61
2023/12/05 03:36:18;;;;;;;1.03;0.50;;;;;;;;;;5056742;28;20203;-63
2023/12/05 03:38:46;;;;;;;0.53;0.53;;;;;;;;;;5055436;28;20214;-66
2023/12/05 03:41:13;;;;;;;1.60;0.60;;;;;;;;;;5055782;28;20234;-67
2023/12/05 03:43:41;;;;;;;1.10;0.50;;;;;;;;;;5050917;28;20270;-66
2023/12/05 03:46:08;;;;;;;0.70;0.57;;;;;;;;;;5054185;28;20203;-66
2023/12/05 03:48:35;;;;;;;0.50;0.50;;;;;;;;;;5053624;28;20211;-66
2023/12/05 03:51:02;;;;;;;1.40;0.50;;;;;;;;;;5053958;28;20207;-66
2023/12/05 03:53:29;;;;;;;0.50;0.50;;;;;;;;;;5052528;28;21300;-66
2023/12/05 03:55:58;;;;;;;0.50;0.50;;;;;;;;;;5054712;28;20203;-65
2023/12/05 03:58:25;;;;;;;0.50;0.50;;;;;;;;;;5054376;28;20242;-66
2023/12/05 04:00:52;;;;;;;0.60;0.33;;;;;;;;;;5055272;28;20206;-66
2023/12/05 04:03:20;;;;;;;1.00;0.73;;;;;;;;;;5052599;28;20195;-66
2023/12/05 04:05:47;;;;;;;1.53;0.93;;;;;;;;;;5055139;28;20211;-65
2023/12/05 04:08:14;;;;;;;0.57;0.50;;;;;;;;;;5050482;28;20699;-66
2023/12/05 04:10:42;;;;;;;0.73;0.60;;;;;;;;;;5059333;28;20207;-65
2023/12/05 04:13:10;;;;;;;0.70;0.50;;;;;;;;;;5052928;28;20235;-66
2023/12/05 04:15:37;;;;;;;1.97;0.57;;;;;;;;;;5054738;28;20203;-67
2023/12/05 04:18:04;;;;;;;1.10;0.60;;;;;;;;;;5052637;28;20229;-67
2023/12/05 04:20:32;;;;;;;0.90;0.67;;;;;;;;;;5054644;28;20203;-65
2023/12/05 04:22:59;;;;;;;0.93;0.60;;;;;;;;;;5059107;28;20211;-67
2023/12/05 04:25:26;;;;;;;0.40;0.40;;;;;;;;;;5055144;28;20198;-66
2023/12/05 04:27:53;;;;;;;0.70;0.50;;;;;;;;;;5056895;28;20207;-66
2023/12/05 04:30:22;;;;;;;0.47;0.40;;;;;;;;;;5054564;28;20207;-65
2023/12/05 04:32:49;;;;;;;0.80;0.50;;;;;;;;;;5057517;28;20198;-66
2023/12/05 04:35:16;;;;;;;0.50;0.47;;;;;;;;;;5056431;28;20201;-66
2023/12/05 04:37:43;;;;;;;0.50;0.50;;;;;;;;;;5058236;28;20233;-66
2023/12/05 04:40:11;;;;;;;0.90;0.60;;;;;;;;;;5057136;28;20202;-67
2023/12/05 04:42:38;;;;;;;0.90;0.60;;;;;;;;;;5057075;28;20214;-66
2023/12/05 04:45:07;;;;;;;0.67;0.40;;;;;;;;;;5057298;28;20203;-67
2023/12/05 04:47:35;;;;;;;1.13;0.60;;;;;;;;;;5058061;28;20199;-67
2023/12/05 04:50:03;;;;;;;0.50;0.50;;;;;;;;;;5056733;28;20214;-68
2023/12/05 04:52:31;;;;;;;1.13;0.60;;;;;;;;;;5058047;28;20211;-66
2023/12/05 04:54:58;;;;;;;0.50;0.50;;;;;;;;;;5054982;28;20821;-66
2023/12/05 04:57:26;;;;;;;0.60;0.60;;;;;;;;;;5054525;28;20318;-67
2023/12/05 04:59:53;;;;;;;0.70;0.70;;;;;;;;;;5056137;28;20202;-67
2023/12/05 05:02:20;;;;;;;0.60;0.60;;;;;;;;;;5053398;28;20203;-65
2023/12/05 05:04:48;;;;;;;1.13;0.63;;;;;;;;;;5054358;28;20218;-66
2023/12/05 05:07:15;;;;;;;0.90;0.90;;;;;;;;;;5055225;28;20202;-67
2023/12/05 05:09:42;;;;;;;0.60;0.60;;;;;;;;;;5056498;28;20211;-67
2023/12/05 05:12:10;;;;;;;1.70;0.70;;;;;;;;;;5053451;28;20222;-67
2023/12/05 05:14:37;;;;;;;1.57;0.80;;;;;;;;;;5054754;28;20301;-67
2023/12/05 05:17:07;;;;;;;1.30;1.20;;;;;;;;;;5055133;28;20230;-66
2023/12/05 05:19:34;;;;;;;0.77;0.70;;;;;;;;;;5056308;28;20220;-68
2023/12/05 05:22:02;;;;;;;1.70;0.80;;;;;;;;;;5054002;28;20203;-66
2023/12/05 05:24:29;;;;;;;0.70;0.70;;;;;;;;;;5051319;28;20229;-68
2023/12/05 05:26:56;;;;;;;1.40;0.90;;;;;;;;;;5055538;28;20214;-67
2023/12/05 05:29:24;;;;;;;0.70;0.70;;;;;;;;;;5055680;28;20214;-68
2023/12/05 05:31:51;;;;;;;0.80;0.80;;;;;;;;;;5055894;28;20214;-68
2023/12/05 05:34:18;;;;;;;0.93;0.83;;;;;;;;;;5053220;28;20203;-68
2023/12/05 05:36:45;;;;;;;0.70;0.70;;;;;;;;;;5058084;28;20209;-67
2023/12/05 05:39:13;;;;;;;0.90;0.90;;;;;;;;;;5057136;28;20253;-67
2023/12/05 05:41:40;;;;;;;1.47;0.90;;;;;;;;;;5057613;28;20209;-66
2023/12/05 05:44:07;;;;;;;1.27;0.80;;;;;;;;;;5054363;28;20207;-66
2023/12/05 05:46:35;;;;;;;2.67;1.00;;;;;;;;;;5058068;28;20203;-68
2023/12/05 05:49:02;;;;;;;2.90;1.20;;;;;;;;;;5053907;28;20214;-66
2023/12/05 05:51:29;;;;;;;1.67;0.80;;;;;;;;;;5056064;28;20210;-67
2023/12/05 05:53:57;;;;;;;2.50;1.03;;;;;;;;;;5053436;28;20210;-66
2023/12/05 05:56:25;;;;;;;1.07;0.97;;;;;;;;;;5054738;28;20196;-67
2023/12/05 05:58:52;;;;;;;1.00;0.90;;;;;;;;;;5055938;28;20230;-62
2023/12/05 06:01:19;;;;;;;1.90;1.20;;;;;;;;;;5056809;28;20206;-62
2023/12/05 06:03:47;;;;;;;0.83;0.80;;;;;;;;;;5053830;28;20206;-62
2023/12/05 06:06:14;;;;;;;1.70;0.87;;;;;;;;;;5057365;28;20209;-62
2023/12/05 06:08:41;;;;;;;2.30;0.90;;;;;;;;;;5055575;28;20210;-62
2023/12/05 06:11:08;;;;;;;0.80;0.80;;;;;;;;;;5058835;28;21530;-62
2023/12/05 06:13:37;;;;;;;1.50;0.90;;;;;;;;;;5054471;28;20242;-63
2023/12/05 06:16:04;;;;;;;1.43;0.70;;;;;;;;;;5053825;28;20301;-63
2023/12/05 06:18:31;;;;;;;0.63;0.63;;;;;;;;;;5055484;28;20271;-62
2023/12/05 06:20:58;;;;;;;0.80;0.80;;;;;;;;;;5054950;28;20206;-61
2023/12/05 06:23:26;;;;;;;1.57;0.80;;;;;;;;;;5054504;28;20206;-61
2023/12/05 06:25:53;;;;;;;1.87;1.00;;;;;;;;;;5054634;28;20209;-63
2023/12/05 06:28:20;;;;;;;0.90;0.90;;;;;;;;;;5054857;28;20204;-61
2023/12/05 06:30:48;;;;;;;1.50;1.00;;;;;;;;;;5055062;28;20199;-63
2023/12/05 06:33:15;;;;;;;1.90;0.80;;;;;;;;;;5056149;28;20211;-62
2023/12/05 06:35:42;;;;;;;1.63;0.90;;;;;;;;;;5051149;28;20210;-64
2023/12/05 06:38:09;;;;;;;0.93;0.80;;;;;;;;;;5054416;28;20231;-62
2023/12/05 06:40:37;;;;;;;1.73;0.97;;;;;;;;;;5053117;28;20211;-62
2023/12/05 06:43:04;;;;;;;0.97;0.90;;;;;;;;;;5050094;28;20203;-63
2023/12/05 06:45:31;;;;;;;1.07;0.90;;;;;;;;;;5054334;28;20486;-62
2023/12/05 06:47:59;;;;;;;1.10;1.00;;;;;;;;;;5055218;28;20203;-62
2023/12/05 06:50:26;;;;;;;1.77;1.07;;;;;;;;;;5056022;28;20218;-62
2023/12/05 06:52:57;;;;;;;1.13;0.90;;;;;;;;;;5048625;28;20203;-63
2023/12/05 06:55:24;;;;;;;0.90;0.90;;;;;;;;;;5054699;28;20203;-62
2023/12/05 06:57:51;;;;;;;1.43;1.07;;;;;;;;;;5052094;28;20221;-62
2023/12/05 07:00:19;;;;;;;1.00;0.90;;;;;;;;;;5056193;28;20202;-62
2023/12/05 07:02:46;;;;;;;1.63;1.03;;;;;;;;;;5048857;28;20209;-62
2023/12/05 07:05:14;;;;;;;1.37;0.73;;;;;;;;;;5051323;28;20210;-63
2023/12/05 07:07:42;;;;;;;2.13;0.80;;;;;;;;;;5055997;28;20198;-62
2023/12/05 07:10:09;;;;;;;0.80;0.77;;;;;;;;;;5056468;28;20203;-62
2023/12/05 07:12:36;;;;;;;1.67;0.60;;;;;;;;;;5052994;28;20213;-63
2023/12/05 07:15:03;;;;;;;1.63;0.70;;;;;;;;;;5058273;28;20211;-62
2023/12/05 07:17:30;;;;;;;0.90;0.80;;;;;;;;;;5056962;28;20217;-62
2023/12/05 07:19:57;;;;;;;1.50;0.70;;;;;;;;;;5057135;28;20325;-61
2023/12/05 07:22:26;;;;;;;1.33;0.90;;;;;;;;;;5053161;28;20206;-63
2023/12/05 07:24:53;;;;;;;0.70;0.60;;;;;;;;;;5057283;28;20208;-63
2023/12/05 07:27:20;;;;;;;0.90;0.63;;;;;;;;;;5050332;28;20206;-62
2023/12/05 07:29:47;;;;;;;1.00;0.80;;;;;;;;;;5055575;28;20207;-62
2023/12/05 07:32:14;;;;;;;0.77;0.60;;;;;;;;;;5056367;28;20198;-63
2023/12/05 07:34:42;;;;;;;1.63;0.60;;;;;;;;;;5052972;28;20207;-63
2023/12/05 07:37:10;;;;;;;0.60;0.53;;;;;;;;;;5051387;28;20207;-62
2023/12/05 07:39:38;;;;;;;1.60;0.60;;;;;;;;;;5055616;28;20221;-62
2023/12/05 07:42:05;;;;;;;0.50;0.50;;;;;;;;;;5052729;28;20211;-62
2023/12/05 07:44:32;;;;;;;1.60;0.50;;;;;;;;;;5048668;28;20214;-63
2023/12/05 07:47:00;;;;;;;0.67;0.60;;;;;;;;;;5055681;28;20203;-62
2023/12/05 07:49:27;;;;;;;0.60;0.60;;;;;;;;;;5052035;28;20207;-62
2023/12/05 07:51:54;;;;;;;0.50;0.50;;;;;;;;;;5054587;28;20207;-63
2023/12/05 07:54:21;;;;;;;0.77;0.77;;;;;;;;;;5047597;28;20211;-62
2023/12/05 07:56:49;;;;;;;0.70;0.70;;;;;;;;;;5055209;28;20199;-63
2023/12/05 07:59:16;;;;;;;0.70;0.60;;;;;;;;;;5060618;28;20226;-62
2023/12/05 08:01:45;;;;;;;0.93;0.60;;;;;;;;;;5058454;28;20210;-63
2023/12/05 08:04:12;;;;;;;1.20;0.50;;;;;;;;;;5057276;28;20230;-62
2023/12/05 08:06:39;;;;;;;0.73;0.50;;;;;;;;;;5060176;28;20203;-63
2023/12/05 08:09:06;;;;;;;1.33;0.60;;;;;;;;;;5056003;28;20207;-62
2023/12/05 08:11:34;;;;;;;0.60;0.60;;;;;;;;;;5058805;28;20217;-62
2023/12/05 08:14:02;;;;;;;0.57;0.50;;;;;;;;;;5059098;28;20226;-63
2023/12/05 08:16:29;;;;;;;0.53;0.50;;;;;;;;;;5061398;28;20211;-62
2023/12/05 08:18:57;;;;;;;1.13;0.90;;;;;;;;;;5059459;28;20226;-64
2023/12/05 08:21:24;;;;;;;0.77;0.73;;;;;;;;;;5061863;28;20202;-62
2023/12/05 08:23:51;;;;;;;0.70;0.70;;;;;;;;;;5057114;28;20211;-62
2023/12/05 08:26:18;;;;;;;1.30;1.20;;;;;;;;;;5057540;28;20221;-63
2023/12/05 08:28:45;;;;;;;1.00;0.90;;;;;;;;;;5056393;28;20210;-62
2023/12/05 08:31:13;;;;;;;0.80;0.80;;;;;;;;;;5058744;28;20207;-62
2023/12/05 08:33:41;;;;;;;0.50;0.50;;;;;;;;;;5059065;28;20210;-62
2023/12/05 08:36:08;;;;;;;1.00;0.70;;;;;;;;;;5056745;28;20203;-61
2023/12/05 08:38:36;;;;;;;1.23;0.70;;;;;;;;;;5056340;28;20351;-63
2023/12/05 08:41:03;;;;;;;2.60;2.40;;;;;;;;;;5061288;28;20215;-61
2023/12/05 08:43:31;;;;;;;1.53;0.53;;;;;;;;;;5057482;28;20213;-63
2023/12/05 08:45:58;;;;;;;0.70;0.50;;;;;;;;;;5057247;28;20211;-64
2023/12/05 08:48:27;;;;;;;0.57;0.50;;;;;;;;;;5057485;28;20198;-62
2023/12/05 08:50:54;;;;;;;0.50;0.50;;;;;;;;;;5056868;28;20199;-63
2023/12/05 08:53:21;;;;;;;0.63;0.50;;;;;;;;;;5058170;28;20198;-63
2023/12/05 08:55:48;;;;;;;0.60;0.60;;;;;;;;;;5056673;28;20198;-63
2023/12/05 08:58:15;;;;;;;0.50;0.50;;;;;;;;;;5060070;28;20321;-62
2023/12/05 09:00:43;;;;;;;0.50;0.50;;;;;;;;;;5057565;28;20226;-63
2023/12/05 09:03:10;;;;;;;0.57;0.57;;;;;;;;;;5058535;28;20206;-63
2023/12/05 09:05:38;;;;;;;0.50;0.50;;;;;;;;;;5057350;28;20206;-61
2023/12/05 09:08:05;;;;;;;1.73;0.60;;;;;;;;;;5057907;28;20206;-63
2023/12/05 09:10:31;;;;;;;0.77;0.60;;;;;;;;;;5058164;28;20221;-62
2023/12/05 09:12:58;;;;;;;0.50;0.50;;;;;;;;;;5057799;28;20317;-64
2023/12/05 09:15:26;;;;;;;0.63;0.60;;;;;;;;;;5058572;28;20206;-62
2023/12/05 09:17:53;;;;;;;0.40;0.40;;;;;;;;;;5058039;28;20204;-62
2023/12/05 09:20:20;;;;;;;0.40;0.40;;;;;;;;;;5056335;28;20237;-63
2023/12/05 09:22:48;;;;;;;0.40;0.40;;;;;;;;;;5057797;28;20203;-64
2023/12/05 09:25:17;;;;;;;2.20;0.50;;;;;;;;;;5056654;28;20198;-62
2023/12/05 09:27:44;;;;;;;0.57;0.40;;;;;;;;;;5057294;28;20214;-63
2023/12/05 09:30:12;;;;;;;1.60;0.60;;;;;;;;;;5057529;28;20207;-63
2023/12/05 09:32:39;;;;;;;0.50;0.50;;;;;;;;;;5060038;28;20247;-62
2023/12/05 09:35:06;;;;;;;0.67;0.40;;;;;;;;;;5053989;28;20213;-63
2023/12/05 09:37:34;;;;;;;0.30;0.30;;;;;;;;;;5058233;28;20341;-62
2023/12/05 09:40:02;;;;;;;0.93;0.70;;;;;;;;;;5056619;28;20227;-63
2023/12/05 09:42:30;;;;;;;0.70;0.50;;;;;;;;;;5056597;28;20199;-62
2023/12/05 09:44:59;;;;;;;0.33;0.33;;;;;;;;;;5056296;28;20210;-62
2023/12/05 09:47:27;;;;;;;1.50;0.50;;;;;;;;;;5059358;28;20203;-62
2023/12/05 09:49:54;;;;;;;1.93;0.53;;;;;;;;;;5055882;28;20199;-63
2023/12/05 09:52:22;;;;;;;0.83;0.60;;;;;;;;;;5056295;28;20339;-62
2023/12/05 09:54:49;;;;;;;0.60;0.57;;;;;;;;;;5056800;28;20223;-62
2023/12/05 09:57:17;;;;;;;0.87;0.40;;;;;;;;;;5057354;28;20198;-61
2023/12/05 09:59:45;;;;;;;1.13;0.50;;;;;;;;;;5053202;28;20222;-62
2023/12/05 10:02:15;;;;;;;0.57;0.57;;;;;;;;;;5056576;28;20211;-63
2023/12/05 10:04:43;;;;;;;0.60;0.50;;;;;;;;;;5057471;28;20215;-61
2023/12/05 10:07:11;;;;;;;0.50;0.50;;;;;;;;;;5055438;28;20230;-63
2023/12/05 10:09:39;;;;;;;0.63;0.53;;;;;;;;;;5056736;28;20202;-62
2023/12/05 10:12:07;;;;;;;0.87;0.53;;;;;;;;;;5054920;28;20209;-63
2023/12/05 10:14:35;;;;;;;0.40;0.40;;;;;;;;;;5058638;28;20241;-62
2023/12/05 10:17:04;;;;;;;0.40;0.40;;;;;;;;;;5057609;28;20203;-62
2023/12/05 10:19:31;;;;;;;0.50;0.50;;;;;;;;;;5055751;28;20248;-63
2023/12/05 10:21:59;;;;;;;0.47;0.40;;;;;;;;;;5057323;28;20207;-62
2023/12/05 10:24:26;;;;;;;0.53;0.33;;;;;;;;;;5056346;28;20207;-63
2023/12/05 10:26:55;;;;;;;0.60;0.27;;;;;;;;;;5058435;28;20275;-62
2023/12/05 10:29:22;;;;;;;0.30;0.30;;;;;;;;;;5056565;28;20206;-63
2023/12/05 10:31:54;;;;;;;0.93;0.40;;;;;;;;;;5053431;28;20207;-63
2023/12/05 10:34:21;;;;;;;0.97;0.40;;;;;;;;;;5056222;28;20268;-63
2023/12/05 10:37:01;;;;;;;0.27;0.20;;;;;;;;;;5055877;28;20207;-62
2023/12/05 10:39:36;;;;;;;0.50;0.50;;;;;;;;;;5054989;28;20227;-62
2023/12/05 10:42:03;;;;;;;1.43;0.70;;;;;;;;;;5056478;28;20591;-61
2023/12/05 10:44:38;;;;;;;0.77;0.63;;;;;;;;;;5053213;28;20207;-63
2023/12/05 10:47:07;;;;;;;0.30;0.30;;;;;;;;;;5056223;28;20198;-61
2023/12/05 10:49:34;;;;;;;0.30;0.30;;;;;;;;;;5058816;28;20214;-62
2023/12/05 10:52:03;;;;;;;0.30;0.30;;;;;;;;;;5056414;28;20193;-62
2023/12/05 10:54:30;;;;;;;0.30;0.30;;;;;;;;;;5054333;28;20214;-62
2023/12/05 10:56:57;;;;;;;1.70;0.30;;;;;;;;;;5054045;28;20199;-62
2023/12/05 10:59:25;;;;;;;0.37;0.30;;;;;;;;;;5057306;28;20227;-63
2023/12/05 11:01:52;;;;;;;0.40;0.40;;;;;;;;;;5054669;28;20206;-63
2023/12/05 11:04:21;;;;;;;0.30;0.30;;;;;;;;;;5055203;28;20199;-62
2023/12/05 11:06:48;;;;;;;0.40;0.40;;;;;;;;;;5054541;28;20199;-63
2023/12/05 11:09:16;;;;;;;0.50;0.50;;;;;;;;;;5056378;28;20203;-62
2023/12/05 11:11:46;;;;;;;0.60;0.60;;;;;;;;;;5054673;28;20202;-62
2023/12/05 11:14:13;;;;;;;1.23;0.90;;;;;;;;;;5058474;28;20348;-61
2023/12/05 11:16:43;;;;;;;0.30;0.30;;;;;;;;;;5058379;28;20215;-62
2023/12/05 11:19:19;;;;;;;0.30;0.20;;;;;;;;;;5058027;28;20219;-62
2023/12/05 11:21:53;;;;;;;0.30;0.30;;;;;;;;;;5055739;28;20221;-62
2023/12/05 11:24:31;;;;;;;0.30;0.30;;;;;;;;;;5055774;28;20207;-64
2023/12/05 11:27:05;;;;;;;0.50;0.40;;;;;;;;;;5057020;28;20214;-62
2023/12/05 11:29:52;;;;;;;0.40;0.40;;;;;;;;;;5055403;28;20290;-62
2023/12/05 11:32:23;;;;;;;2.90;0.40;;;;;;;;;;5059188;28;20218;-63
2023/12/05 11:34:58;;;;;;;0.30;0.30;;;;;;;;;;5060178;28;20328;-63
2023/12/05 11:37:34;;;;;;;0.70;0.67;;;;;;;;;;5058068;28;20214;-63
2023/12/05 11:40:01;;;;;;;0.37;0.37;;;;;;;;;;5058937;28;20245;-62
2023/12/05 11:42:30;;;;;;;0.20;0.20;;;;;;;;;;5061701;28;20206;-62
2023/12/05 11:44:57;;;;;;;0.40;0.40;;;;;;;;;;5059021;28;20206;-62
2023/12/05 11:47:25;;;;;;;0.50;0.50;;;;;;;;;;5059509;28;20208;-63
2023/12/05 11:49:54;;;;;;;0.30;0.30;;;;;;;;;;5057783;28;20212;-62
2023/12/05 11:52:21;;;;;;;0.53;0.50;;;;;;;;;;5057608;28;20210;-63
2023/12/05 11:54:52;;;;;;;0.73;0.70;;;;;;;;;;5057449;28;20306;-62
2023/12/05 11:57:20;;;;;;;0.30;0.30;;;;;;;;;;5059258;28;20198;-61
2023/12/05 11:59:48;;;;;;;0.37;0.37;;;;;;;;;;5059092;28;20223;-62
2023/12/05 12:02:18;;;;;;;0.30;0.30;;;;;;;;;;5059685;28;20203;-63
2023/12/05 12:04:46;;;;;;;0.30;0.30;;;;;;;;;;5058717;28;20203;-63
2023/12/05 12:07:13;;;;;;;0.47;0.20;;;;;;;;;;5059343;28;20207;-62
2023/12/05 12:09:41;;;;;;;0.40;0.40;;;;;;;;;;5057408;28;20199;-62
2023/12/05 12:12:10;;;;;;;0.40;0.40;;;;;;;;;;5057531;28;20202;-61
2023/12/05 12:14:41;;;;;;;0.30;0.30;;;;;;;;;;5058234;28;20234;-64
2023/12/05 12:17:11;;;;;;;0.30;0.30;;;;;;;;;;5059775;28;20203;-62
2023/12/05 12:19:38;;;;;;;0.30;0.30;;;;;;;;;;5057739;28;20234;-61
2023/12/05 12:22:07;;;;;;;0.37;0.37;;;;;;;;;;5059799;28;20302;-61
2023/12/05 12:24:34;;;;;;;0.83;0.30;;;;;;;;;;5057405;28;20199;-62
2023/12/05 12:27:01;;;;;;;0.30;0.30;;;;;;;;;;5056917;28;20218;-61
2023/12/05 12:29:29;;;;;;;0.43;0.30;;;;;;;;;;5056902;28;20207;-63
2023/12/05 12:32:06;;;;;;;1.07;0.50;;;;;;;;;;5059825;28;20199;-62
2023/12/05 12:34:33;;;;;;;0.60;0.60;;;;;;;;;;5057629;28;20206;-64
2023/12/05 12:37:00;;;;;;;0.30;0.30;;;;;;;;;;5057884;28;20293;-63
2023/12/05 12:39:29;;;;;;;0.50;0.50;;;;;;;;;;5057061;28;20207;-62
2023/12/05 12:41:57;;;;;;;0.47;0.43;;;;;;;;;;5056707;28;21353;-62
2023/12/05 12:44:27;;;;;;;0.30;0.30;;;;;;;;;;5058485;28;20199;-62
2023/12/05 12:46:55;;;;;;;0.27;0.27;;;;;;;;;;5059395;28;20202;-62
2023/12/05 12:49:23;;;;;;;0.30;0.30;;;;;;;;;;5056630;28;20207;-62
2023/12/05 12:51:51;;;;;;;1.40;0.53;;;;;;;;;;5058127;28;20198;-62
2023/12/05 12:54:19;;;;;;;3.67;0.67;;;;;;;;;;5058323;28;20198;-62
2023/12/05 12:56:46;;;;;;;0.40;0.40;;;;;;;;;;5057179;28;20208;-62
2023/12/05 12:59:13;;;;;;;0.43;0.43;;;;;;;;;;5060304;28;20209;-67
2023/12/05 13:01:40;;;;;;;0.30;0.30;;;;;;;;;;5056033;28;20221;-68
2023/12/05 13:04:12;;;;;;;0.40;0.40;;;;;;;;;;5055602;28;20199;-67
2023/12/05 13:06:41;;;;;;;0.80;0.43;;;;;;;;;;5056749;28;20206;-68
2023/12/05 13:09:10;;;;;;;0.73;0.50;;;;;;;;;;5061391;28;20222;-67
2023/12/05 13:11:37;;;;;;;0.43;0.40;;;;;;;;;;5055326;28;20287;-69
2023/12/05 13:14:07;;;;;;;0.53;0.53;;;;;;;;;;5055011;28;20231;-67
2023/12/05 13:16:35;;;;;;;0.40;0.40;;;;;;;;;;5058126;28;20211;-68
2023/12/05 13:19:02;;;;;;;0.50;0.50;;;;;;;;;;5057693;28;20207;-69
2023/12/05 13:21:33;;;;;;;0.90;0.90;;;;;;;;;;5054024;28;20218;-68
2023/12/05 13:24:00;;;;;;;0.50;0.50;;;;;;;;;;5054714;28;20202;-68
2023/12/05 13:26:27;;;;;;;0.57;0.57;;;;;;;;;;5056518;28;20210;-67
2023/12/05 13:28:55;;;;;;;0.30;0.30;;;;;;;;;;5055759;28;20212;-66
2023/12/05 13:31:23;;;;;;;0.63;0.53;;;;;;;;;;5057485;28;20237;-68
2023/12/05 13:33:50;;;;;;;0.50;0.50;;;;;;;;;;5052552;28;20329;-68
2023/12/05 13:36:18;;;;;;;0.50;0.50;;;;;;;;;;5057555;28;20207;-68
2023/12/05 13:38:46;;;;;;;0.50;0.50;;;;;;;;;;5055081;28;20202;-66
2023/12/05 13:41:13;;;;;;;0.50;0.50;;;;;;;;;;5059466;28;20237;-67
2023/12/05 13:43:41;;;;;;;0.50;0.50;;;;;;;;;;5054372;28;20222;-68
2023/12/05 13:46:08;;;;;;;0.50;0.50;;;;;;;;;;5055533;28;20202;-67
2023/12/05 13:48:35;;;;;;;0.33;0.33;;;;;;;;;;5056385;28;20202;-68
2023/12/05 13:51:03;;;;;;;0.40;0.40;;;;;;;;;;5055021;28;20203;-67
2023/12/05 13:53:30;;;;;;;0.43;0.43;;;;;;;;;;5051137;28;20219;-67
2023/12/05 13:55:59;;;;;;;0.37;0.33;;;;;;;;;;5054149;28;20289;-68
2023/12/05 13:58:26;;;;;;;0.50;0.50;;;;;;;;;;5054777;28;20218;-68
2023/12/05 14:00:52;;;;;;;0.77;0.40;;;;;;;;;;5057080;28;20214;-68
2023/12/05 14:03:19;;;;;;;1.40;0.40;;;;;;;;;;5055368;28;20217;-68
2023/12/05 14:05:46;;;;;;;0.47;0.47;;;;;;;;;;5053982;28;20213;-68
2023/12/05 14:08:13;;;;;;;0.30;0.30;;;;;;;;;;5053290;28;20530;-62
2023/12/05 14:10:41;;;;;;;0.50;0.50;;;;;;;;;;5061624;28;20193;-63
2023/12/05 14:13:09;;;;;;;2.93;0.70;;;;;;;;;;5054798;28;20230;-63
2023/12/05 14:15:37;;;;;;;0.93;0.63;;;;;;;;;;5059470;28;20198;-62
2023/12/05 14:18:06;;;;;;;0.70;0.70;;;;;;;;;;5058584;28;20213;-63
2023/12/05 14:20:33;;;;;;;0.90;0.90;;;;;;;;;;5056706;28;20225;-61
2023/12/05 14:23:01;;;;;;;0.90;0.90;;;;;;;;;;5054746;28;20214;-62
2023/12/05 14:25:28;;;;;;;0.60;0.60;;;;;;;;;;5053786;28;20206;-63
2023/12/05 14:27:55;;;;;;;0.77;0.77;;;;;;;;;;5055178;28;20209;-62
2023/12/05 14:30:24;;;;;;;0.90;0.90;;;;;;;;;;5054342;28;20208;-62
2023/12/05 14:32:51;;;;;;;1.03;1.00;;;;;;;;;;5055061;28;20203;-62
2023/12/05 14:35:20;;;;;;;0.90;0.90;;;;;;;;;;5053871;28;20206;-61
2023/12/05 14:37:47;;;;;;;0.80;0.80;;;;;;;;;;5056901;28;20418;-63
2023/12/05 14:40:14;;;;;;;1.00;1.00;;;;;;;;;;5055255;28;20221;-63
2023/12/05 14:42:42;;;;;;;1.00;0.87;;;;;;;;;;5057021;28;20367;-61
2023/12/05 14:45:09;;;;;;;1.00;1.00;;;;;;;;;;5055175;28;20199;-62
2023/12/05 14:47:37;;;;;;;0.80;0.80;;;;;;;;;;5057832;28;20245;-61